createdAt,value
2024-05-09T00:00:18.494Z,12.50
2024-05-09T00:02:55.930Z,12.50
2024-05-09T00:05:25.779Z,12.60
2024-05-09T00:07:55.723Z,12.60
2024-05-09T00:10:35.278Z,12.60
2024-05-09T00:13:11.110Z,12.60
2024-05-09T00:15:41.125Z,12.70
2024-05-09T00:18:11.190Z,12.50
2024-05-09T00:20:41.542Z,12.60
2024-05-09T00:23:12.694Z,12.60
2024-05-09T00:25:43.647Z,12.60
2024-05-09T00:28:16.671Z,12.60
2024-05-09T00:30:46.458Z,12.60
2024-05-09T00:33:16.415Z,12.70
2024-05-09T00:35:46.328Z,12.60
2024-05-09T00:38:16.271Z,12.60
2024-05-09T00:40:46.021Z,12.70
2024-05-09T00:43:18.602Z,12.80
2024-05-09T00:45:49.139Z,12.60
2024-05-09T00:48:21.534Z,12.60
2024-05-09T00:50:54.151Z,12.50
2024-05-09T00:53:24.560Z,12.50
2024-05-09T00:55:55.340Z,12.60
2024-05-09T00:58:30.398Z,12.70
2024-05-09T01:01:01.898Z,12.90
2024-05-09T01:03:31.836Z,12.80
2024-05-09T01:06:01.927Z,12.60
2024-05-09T01:08:31.716Z,12.70
2024-05-09T01:11:01.676Z,12.70
2024-05-09T01:13:34.216Z,12.70
2024-05-09T01:16:04.023Z,12.50
2024-05-09T01:18:33.874Z,12.60
2024-05-09T01:21:08.495Z,12.60
2024-05-09T01:23:44.375Z,12.70
2024-05-09T01:26:14.164Z,12.70
2024-05-09T01:28:43.983Z,12.70
2024-05-09T01:31:16.067Z,12.70
2024-05-09T01:33:46.133Z,12.70
2024-05-09T01:36:16.059Z,12.80
2024-05-09T01:38:48.448Z,12.70
2024-05-09T01:41:18.276Z,12.70
2024-05-09T01:43:48.371Z,12.70
2024-05-09T01:46:19.412Z,12.70
2024-05-09T01:48:49.540Z,12.70
2024-05-09T01:51:19.393Z,12.60
2024-05-09T01:53:51.806Z,12.60
2024-05-09T01:56:24.535Z,12.60
2024-05-09T01:58:54.313Z,12.60
2024-05-09T02:01:26.912Z,12.60
2024-05-09T02:03:56.858Z,12.60
2024-05-09T02:06:26.746Z,12.60
2024-05-09T02:08:59.136Z,12.60
2024-05-09T02:11:28.981Z,12.50
2024-05-09T02:13:58.764Z,12.60
2024-05-09T02:16:28.429Z,12.60
2024-05-09T02:18:58.138Z,12.50
2024-05-09T02:21:28.956Z,12.60
2024-05-09T02:24:01.363Z,12.60
2024-05-09T02:26:31.262Z,12.70
2024-05-09T02:29:01.665Z,12.60
2024-05-09T02:31:31.431Z,12.60
2024-05-09T02:34:01.694Z,12.50
2024-05-09T02:36:31.647Z,12.60
2024-05-09T02:39:01.425Z,12.40
2024-05-09T02:41:31.224Z,12.30
2024-05-09T02:43:58.588Z,12.40
2024-05-09T02:46:28.315Z,12.40
2024-05-09T02:48:55.473Z,12.60
2024-05-09T02:51:25.304Z,12.60
2024-05-09T02:53:52.401Z,12.60
2024-05-09T02:56:24.919Z,12.70
2024-05-09T02:58:52.012Z,12.50
2024-05-09T03:01:21.926Z,12.60
2024-05-09T03:03:53.323Z,12.50
2024-05-09T03:06:23.142Z,12.50
2024-05-09T03:08:50.356Z,12.50
2024-05-09T03:11:31.932Z,12.60
2024-05-09T03:13:59.100Z,12.50
2024-05-09T03:16:28.875Z,12.50
2024-05-09T03:18:56.218Z,12.50
2024-05-09T03:21:26.131Z,12.40
2024-05-09T03:23:53.323Z,12.40
2024-05-09T03:26:23.158Z,12.40
2024-05-09T03:28:52.977Z,12.50
2024-05-09T03:31:22.784Z,12.50
2024-05-09T03:33:50.072Z,12.40
2024-05-09T03:36:19.917Z,12.40
2024-05-09T03:38:50.936Z,12.30
2024-05-09T03:41:22.666Z,12.30
2024-05-09T03:43:55.267Z,12.40
2024-05-09T03:46:22.749Z,12.50
2024-05-09T03:48:52.653Z,12.40
2024-05-09T03:51:19.900Z,12.50
2024-05-09T03:53:49.643Z,12.50
2024-05-09T03:56:19.977Z,12.50
2024-05-09T03:58:51.052Z,12.40
2024-05-09T04:01:25.560Z,12.40
2024-05-09T04:03:55.724Z,12.40
2024-05-09T04:06:26.722Z,12.40
2024-05-09T04:08:56.625Z,12.50
2024-05-09T04:11:23.859Z,12.30
2024-05-09T04:13:53.946Z,12.40
2024-05-09T04:16:23.918Z,12.40
2024-05-09T04:18:53.901Z,12.30
2024-05-09T04:21:24.431Z,12.50
2024-05-09T04:23:54.642Z,12.40
2024-05-09T04:26:34.613Z,12.60
2024-05-09T04:29:04.886Z,12.60
2024-05-09T04:31:41.666Z,12.60
2024-05-09T04:34:09.448Z,12.60
2024-05-09T04:36:42.466Z,12.60
2024-05-09T04:39:11.090Z,12.50
2024-05-09T04:41:41.411Z,12.50
2024-05-09T04:44:08.711Z,12.50
2024-05-09T04:46:45.625Z,12.40
2024-05-09T04:49:13.026Z,12.50
2024-05-09T04:51:44.118Z,12.50
2024-05-09T04:54:22.131Z,12.60
2024-05-09T04:56:59.820Z,12.50
2024-05-09T04:59:27.053Z,12.50
2024-05-09T05:02:02.573Z,12.50
2024-05-09T05:04:35.546Z,12.60
2024-05-09T05:07:11.655Z,12.60
2024-05-09T05:09:38.852Z,12.50
2024-05-09T05:12:39.555Z,12.60
2024-05-09T05:15:10.245Z,12.60
2024-05-09T05:17:42.900Z,12.60
2024-05-09T05:20:15.063Z,12.60
2024-05-09T05:22:45.536Z,12.50
2024-05-09T05:25:20.342Z,12.70
2024-05-09T05:27:53.991Z,12.70
2024-05-09T05:30:25.453Z,12.80
2024-05-09T05:33:07.710Z,12.90
2024-05-09T05:35:37.551Z,12.80
2024-05-09T05:38:11.319Z,12.90
2024-05-09T05:40:41.056Z,13.00
2024-05-09T05:43:17.577Z,13.00
2024-05-09T05:45:47.754Z,12.80
2024-05-09T05:48:43.306Z,12.90
2024-05-09T05:51:10.621Z,12.80
2024-05-09T05:53:49.596Z,12.90
2024-05-09T05:56:38.707Z,13.10
2024-05-09T05:59:15.143Z,12.90
2024-05-09T06:01:55.666Z,13.00
2024-05-09T06:04:28.658Z,13.30
2024-05-09T06:07:26.700Z,13.30
2024-05-09T06:13:12.094Z,13.20
2024-05-09T06:16:09.234Z,13.40
2024-05-09T06:18:43.284Z,12.90
2024-05-09T06:21:14.304Z,12.70
2024-05-09T06:23:48.804Z,13.10
2024-05-09T06:26:16.623Z,13.30
2024-05-09T06:28:49.998Z,13.20
2024-05-09T06:31:40.575Z,13.10
2024-05-09T06:34:10.703Z,13.10
2024-05-09T06:36:45.330Z,13.70
2024-05-09T06:39:18.584Z,13.80
2024-05-09T06:41:48.751Z,13.60
2024-05-09T06:44:41.713Z,13.80
2024-05-09T06:47:42.231Z,14.00
2024-05-09T06:50:23.302Z,14.30
2024-05-09T06:53:03.074Z,14.50
2024-05-09T06:55:35.820Z,14.60
2024-05-09T06:58:12.517Z,14.50
2024-05-09T07:00:50.912Z,14.60
2024-05-09T07:03:22.848Z,14.60
2024-05-09T07:05:51.920Z,14.60
2024-05-09T07:08:37.004Z,14.50
2024-05-09T07:11:11.140Z,14.60
2024-05-09T07:13:54.286Z,15.00
2024-05-09T07:16:21.459Z,15.30
2024-05-09T07:18:56.201Z,15.40
2024-05-09T07:21:25.728Z,15.30
2024-05-09T07:24:01.499Z,15.40
2024-05-09T07:26:29.007Z,15.10
2024-05-09T07:28:59.019Z,15.20
2024-05-09T07:31:30.426Z,15.10
2024-05-09T07:34:00.773Z,15.10
2024-05-09T07:36:27.999Z,15.00
2024-05-09T07:39:08.818Z,15.30
2024-05-09T07:41:37.232Z,15.10
2024-05-09T07:44:11.775Z,15.30
2024-05-09T07:54:56.828Z,15.00
2024-05-09T07:57:24.224Z,15.20
2024-05-09T07:59:53.991Z,15.40
2024-05-09T08:02:21.617Z,15.50
2024-05-09T08:04:51.629Z,15.70
2024-05-09T08:07:20.048Z,16.00
2024-05-09T08:09:50.066Z,16.40
2024-05-09T08:12:20.062Z,16.50
2024-05-09T08:14:50.015Z,16.60
2024-05-09T08:17:17.198Z,16.80
2024-05-09T08:19:47.885Z,16.80
2024-05-09T08:22:15.405Z,16.80
2024-05-09T08:24:46.803Z,17.40
2024-05-09T08:27:14.058Z,18.10
2024-05-09T08:29:46.870Z,18.50
2024-05-09T08:32:14.127Z,18.20
2024-05-09T08:34:44.168Z,18.30
2024-05-09T08:37:15.778Z,19.90
2024-05-09T08:39:55.929Z,21.50
2024-05-09T08:42:24.150Z,22.00
2024-05-09T08:44:59.587Z,22.40
2024-05-09T08:47:31.841Z,22.20
2024-05-09T08:52:31.535Z,23.20
2024-05-09T08:55:05.786Z,23.60
2024-05-09T08:57:42.667Z,22.70
2024-05-09T09:00:33.376Z,23.90
2024-05-09T09:03:05.867Z,23.20
2024-05-09T09:05:51.288Z,21.10
2024-05-09T09:08:46.108Z,20.70
2024-05-09T09:11:21.558Z,19.90
2024-05-09T09:13:49.190Z,20.10
2024-05-09T09:16:21.974Z,19.80
2024-05-09T09:18:54.232Z,19.10
2024-05-09T09:21:25.727Z,18.60
2024-05-09T09:23:56.624Z,18.60
2024-05-09T09:26:26.431Z,18.30
2024-05-09T09:28:59.610Z,18.00
2024-05-09T09:31:33.171Z,17.80
2024-05-09T09:34:14.809Z,17.70
2024-05-09T09:36:49.793Z,17.80
2024-05-09T09:39:20.453Z,18.00
2024-05-09T09:41:50.949Z,17.70
2024-05-09T09:44:19.757Z,17.40
2024-05-09T09:46:53.370Z,17.50
2024-05-09T09:49:27.191Z,17.00
2024-05-09T09:51:57.821Z,17.00
2024-05-09T09:54:32.801Z,16.90
2024-05-09T09:57:04.566Z,17.00
2024-05-09T09:59:36.070Z,16.90
2024-05-09T10:02:09.347Z,16.80
2024-05-09T10:04:39.300Z,16.60
2024-05-09T10:07:13.446Z,16.70
2024-05-09T10:09:45.624Z,16.50
2024-05-09T10:12:16.697Z,16.40
2024-05-09T10:14:57.080Z,16.50
2024-05-09T10:17:29.572Z,16.20
2024-05-09T10:20:14.793Z,16.30
2024-05-09T10:22:54.946Z,16.30
2024-05-09T10:25:23.748Z,16.60
2024-05-09T10:28:16.149Z,16.80
2024-05-09T10:30:44.479Z,16.70
2024-05-09T10:33:24.505Z,17.00
2024-05-09T10:35:51.875Z,16.80
2024-05-09T10:38:22.115Z,16.80
2024-05-09T10:40:56.439Z,16.80
2024-05-09T10:43:26.514Z,16.90
2024-05-09T10:45:53.727Z,16.90
2024-05-09T10:48:26.219Z,17.00
2024-05-09T10:50:53.464Z,17.10
2024-05-09T10:53:23.182Z,16.60
2024-05-09T10:58:50.092Z,16.60
2024-05-09T11:01:20.496Z,16.50
2024-05-09T11:03:53.638Z,16.60
2024-05-09T11:06:21.054Z,16.70
2024-05-09T11:09:01.334Z,16.80
2024-05-09T11:11:37.026Z,17.00
2024-05-09T11:20:08.120Z,17.30
2024-05-09T11:22:40.634Z,17.20
2024-05-09T11:25:12.193Z,17.60
2024-05-09T11:27:54.024Z,17.90
2024-05-09T11:30:27.008Z,18.10
2024-05-09T11:33:13.454Z,17.80
2024-05-09T11:35:54.463Z,17.70
2024-05-09T11:38:27.161Z,17.90
2024-05-09T11:40:57.234Z,17.50
2024-05-09T11:43:37.329Z,17.40
2024-05-09T11:46:13.217Z,17.30
2024-05-09T11:48:43.793Z,17.60
2024-05-09T11:51:29.589Z,17.60
2024-05-09T11:54:04.902Z,17.60
2024-05-09T11:56:36.787Z,17.30
2024-05-09T11:59:14.096Z,17.30
2024-05-09T12:01:41.559Z,17.40
2024-05-09T12:04:14.632Z,17.20
2024-05-09T12:07:12.986Z,17.40
2024-05-09T12:09:51.373Z,17.60
2024-05-09T12:12:19.800Z,17.80
2024-05-09T12:14:49.649Z,18.00
2024-05-09T12:21:18.090Z,18.30
2024-05-09T12:47:09.901Z,18.70
2024-05-09T12:52:54.918Z,18.70
2024-05-09T12:56:02.366Z,18.70
2024-05-09T12:58:56.186Z,18.70
2024-05-09T13:02:06.796Z,18.40
2024-05-09T13:05:26.802Z,18.80
2024-05-09T13:08:30.332Z,18.60
2024-05-09T13:11:08.970Z,18.70
2024-05-09T13:19:03.595Z,18.40
2024-05-09T13:21:05.527Z,18.30
2024-05-09T13:24:37.253Z,18.30
2024-05-09T13:27:37.045Z,18.20
2024-05-09T13:31:03.322Z,18.10
2024-05-09T13:33:36.584Z,18.00
2024-05-09T13:36:28.711Z,18.00
2024-05-09T13:39:22.304Z,18.00
2024-05-09T13:42:03.676Z,18.10
2024-05-09T13:44:52.248Z,18.20
2024-05-09T13:51:20.794Z,18.20
2024-05-09T13:53:53.421Z,18.10
2024-05-09T13:56:29.303Z,17.80
2024-05-09T13:59:02.700Z,17.80
2024-05-09T14:01:55.261Z,17.60
2024-05-09T14:08:35.170Z,17.30
2024-05-09T14:11:45.256Z,17.30
2024-05-09T14:15:22.210Z,17.30
2024-05-09T14:20:35.085Z,17.20
2024-05-09T14:23:07.092Z,17.10
2024-05-09T14:25:58.411Z,17.20
2024-05-09T14:28:40.263Z,17.00
2024-05-09T14:31:29.094Z,17.20
2024-05-09T14:34:13.053Z,17.10
2024-05-09T14:36:47.287Z,17.10
2024-05-09T14:39:24.317Z,17.10
2024-05-09T14:42:10.789Z,17.10
2024-05-09T14:44:46.205Z,17.10
2024-05-09T14:47:23.908Z,17.20
2024-05-09T14:50:51.715Z,16.90
2024-05-09T14:53:58.281Z,16.90
2024-05-09T14:56:31.537Z,17.00
2024-05-09T14:59:08.609Z,16.90
2024-05-09T15:01:41.046Z,17.00
2024-05-09T15:04:08.315Z,17.20
2024-05-09T15:06:40.940Z,17.40
2024-05-09T15:09:08.226Z,17.30
2024-05-09T15:11:38.126Z,17.30
2024-05-09T15:14:05.294Z,17.40
2024-05-09T15:16:35.195Z,17.50
2024-05-09T15:19:05.220Z,17.50
2024-05-09T15:21:35.046Z,17.40
2024-05-09T15:24:02.148Z,17.20
2024-05-09T15:26:31.926Z,17.30
2024-05-09T15:28:59.348Z,17.20
2024-05-09T15:31:29.259Z,17.10
2024-05-09T15:33:56.554Z,17.30
2024-05-09T15:36:29.191Z,17.30
2024-05-09T15:38:56.436Z,17.40
2024-05-09T15:41:26.124Z,17.30
2024-05-09T15:43:53.226Z,17.10
2024-05-09T15:46:23.066Z,17.10
2024-05-09T15:48:50.484Z,17.10
2024-05-09T15:51:20.270Z,17.00
2024-05-09T15:53:50.044Z,17.00
2024-05-09T15:56:20.026Z,17.00
2024-05-09T15:58:47.173Z,17.20
2024-05-09T16:01:17.240Z,17.30
2024-05-09T16:03:44.637Z,17.40
2024-05-09T16:06:14.842Z,17.40
2024-05-09T16:08:42.634Z,17.40
2024-05-09T16:11:17.067Z,17.50
2024-05-09T16:13:44.361Z,17.40
2024-05-09T16:16:14.644Z,17.40
2024-05-09T16:18:45.144Z,17.50
2024-05-09T16:21:14.895Z,17.60
2024-05-09T16:23:44.627Z,17.60
2024-05-09T16:26:17.047Z,17.50
2024-05-09T16:28:44.195Z,17.50
2024-05-09T16:31:14.031Z,17.50
2024-05-09T16:33:42.464Z,17.40
2024-05-09T16:36:12.354Z,17.30
2024-05-09T16:38:41.965Z,17.10
2024-05-09T16:41:13.299Z,17.30
2024-05-09T16:43:43.051Z,17.50
2024-05-09T16:46:13.070Z,17.60
2024-05-09T16:48:43.016Z,17.70
2024-05-09T16:51:12.780Z,17.60
2024-05-09T16:53:39.890Z,17.50
2024-05-09T16:56:10.317Z,17.50
2024-05-09T16:58:40.835Z,17.50
2024-05-09T17:01:13.542Z,17.50
2024-05-09T17:06:35.034Z,17.30
2024-05-09T17:09:11.298Z,17.20
2024-05-09T17:11:41.835Z,17.30
2024-05-09T17:14:11.641Z,17.30
2024-05-09T17:16:44.277Z,17.30
2024-05-09T17:19:11.718Z,17.20
2024-05-09T17:21:41.505Z,17.30
2024-05-09T17:24:08.619Z,17.30
2024-05-09T17:26:39.240Z,17.30
2024-05-09T17:29:07.955Z,17.20
2024-05-09T17:31:39.795Z,17.10
2024-05-09T17:34:09.777Z,17.10
2024-05-09T17:36:39.763Z,17.10
2024-05-09T17:39:07.015Z,17.00
2024-05-09T17:41:36.715Z,17.10
2024-05-09T17:44:04.065Z,17.10
2024-05-09T17:46:33.852Z,17.00
2024-05-09T17:49:01.477Z,17.00
2024-05-09T17:51:35.918Z,16.90
2024-05-09T17:54:03.106Z,16.90
2024-05-09T17:56:32.893Z,16.70
2024-05-09T17:59:00.057Z,16.80
2024-05-09T18:01:29.930Z,16.70
2024-05-09T18:03:57.511Z,16.60
2024-05-09T18:06:27.417Z,16.60
2024-05-09T18:08:57.231Z,16.50
2024-05-09T18:11:28.110Z,16.50
2024-05-09T18:13:55.338Z,16.40
2024-05-09T18:16:25.219Z,16.30
2024-05-09T18:18:52.714Z,16.30
2024-05-09T18:21:25.512Z,16.40
2024-05-09T18:23:54.425Z,16.30
2024-05-09T18:26:27.886Z,16.40
2024-05-09T18:28:55.193Z,16.40
2024-05-09T18:31:25.102Z,16.40
2024-05-09T18:33:52.593Z,16.40
2024-05-09T18:36:22.683Z,16.40
2024-05-09T18:38:49.870Z,16.40
2024-05-09T18:41:20.588Z,16.30
2024-05-09T18:43:51.049Z,16.30
2024-05-09T18:46:21.115Z,16.30
2024-05-09T18:48:48.508Z,16.30
2024-05-09T18:51:18.510Z,16.40
2024-05-09T18:53:46.182Z,16.30
2024-05-09T18:56:15.972Z,16.30
2024-05-09T18:58:45.673Z,16.20
2024-05-09T19:01:15.455Z,16.20
2024-05-09T19:03:55.136Z,16.10
2024-05-09T19:06:24.669Z,16.10
2024-05-09T19:08:54.668Z,16.00
2024-05-09T19:11:21.849Z,16.00
2024-05-09T19:13:52.824Z,16.10
2024-05-09T19:16:22.734Z,16.00
2024-05-09T19:18:53.851Z,15.90
2024-05-09T19:21:21.052Z,15.90
2024-05-09T19:23:52.419Z,15.90
2024-05-09T19:26:19.921Z,15.90
2024-05-09T19:28:49.648Z,15.90
2024-05-09T19:31:16.814Z,15.80
2024-05-09T19:33:49.246Z,15.80
2024-05-09T19:36:19.326Z,15.80
2024-05-09T19:38:51.367Z,15.80
2024-05-09T19:41:18.504Z,15.70
2024-05-09T19:43:48.228Z,15.70
2024-05-09T19:46:16.027Z,15.60
2024-05-09T19:48:48.728Z,15.80
2024-05-09T19:51:16.105Z,15.70
2024-05-09T19:53:45.870Z,15.60
2024-05-09T19:56:13.105Z,15.50
2024-05-09T19:58:42.798Z,15.60
2024-05-09T20:01:10.104Z,15.60
2024-05-09T20:03:40.027Z,15.50
2024-05-09T20:06:10.491Z,15.50
2024-05-09T20:08:41.968Z,15.50
2024-05-09T20:11:09.094Z,15.40
2024-05-09T20:13:39.725Z,15.40
2024-05-09T20:16:08.132Z,15.30
2024-05-09T20:18:38.113Z,15.30
2024-05-09T20:21:06.485Z,15.20
2024-05-09T20:23:39.217Z,15.20
2024-05-09T20:26:07.566Z,15.10
2024-05-09T20:28:37.347Z,15.10
2024-05-09T20:31:05.281Z,15.00
2024-05-09T20:33:35.108Z,15.00
2024-05-09T20:36:02.737Z,15.00
2024-05-09T20:38:32.534Z,15.00
2024-05-09T20:41:02.400Z,15.00
2024-05-09T20:43:32.188Z,14.90
2024-05-09T20:45:59.358Z,14.90
2024-05-09T20:48:29.259Z,15.00
2024-05-09T20:50:56.441Z,14.90
2024-05-09T20:53:26.200Z,14.80
2024-05-09T20:55:53.507Z,14.70
2024-05-09T20:58:26.023Z,14.70
2024-05-09T21:00:53.557Z,14.60
2024-05-09T21:03:23.452Z,14.50
2024-05-09T21:05:50.714Z,14.50
2024-05-09T21:08:20.459Z,14.50
2024-05-09T21:10:48.673Z,14.50
2024-05-09T21:13:18.557Z,14.40
2024-05-09T21:15:48.394Z,14.30
2024-05-09T21:18:18.220Z,14.20
2024-05-09T21:20:45.414Z,14.20
2024-05-09T21:23:15.183Z,14.10
2024-05-09T21:25:42.304Z,14.10
2024-05-09T21:28:12.074Z,14.10
2024-05-09T21:30:42.451Z,14.00
2024-05-09T21:33:16.407Z,13.90
2024-05-09T21:35:44.640Z,13.90
2024-05-09T21:38:16.007Z,13.90
2024-05-09T21:40:43.696Z,13.90
2024-05-09T21:43:14.289Z,13.80
2024-05-09T21:45:41.782Z,13.70
2024-05-09T21:48:11.702Z,13.70
2024-05-09T21:50:42.585Z,13.60
2024-05-09T21:53:13.522Z,13.60
2024-05-09T21:55:41.513Z,13.60
2024-05-09T21:58:12.314Z,13.50
2024-05-09T22:00:40.849Z,13.60
2024-05-09T22:03:12.313Z,13.50
2024-05-09T22:05:44.417Z,13.40
2024-05-09T22:08:14.666Z,13.40
2024-05-09T22:10:42.046Z,13.40
2024-05-09T22:13:15.133Z,13.30
2024-05-09T22:15:42.610Z,13.30
2024-05-09T22:18:12.746Z,13.20
2024-05-09T22:20:45.402Z,13.20
2024-05-09T22:23:16.727Z,13.10
2024-05-09T22:25:43.951Z,13.10
2024-05-09T22:28:16.400Z,13.10
2024-05-09T22:30:45.760Z,13.10
2024-05-09T22:33:16.048Z,13.00
2024-05-09T22:35:45.984Z,13.00
2024-05-09T22:38:15.761Z,13.00
2024-05-09T22:40:48.148Z,12.90
2024-05-09T22:43:23.151Z,12.90
2024-05-09T22:45:52.864Z,12.90
2024-05-09T22:48:23.676Z,12.80
2024-05-09T22:50:54.531Z,12.80
2024-05-09T22:53:25.751Z,12.80
2024-05-09T22:55:53.094Z,12.70
2024-05-09T22:58:23.575Z,12.80
2024-05-09T23:00:51.272Z,12.60
2024-05-09T23:03:22.652Z,12.60
2024-05-09T23:05:50.155Z,12.60
2024-05-09T23:08:22.496Z,12.60
2024-05-09T23:10:49.732Z,12.50
2024-05-09T23:13:20.211Z,12.50
2024-05-09T23:15:50.114Z,12.50
2024-05-09T23:18:20.050Z,12.30
2024-05-09T23:20:47.339Z,12.40
2024-05-09T23:23:17.374Z,12.50
2024-05-09T23:25:47.070Z,12.50
2024-05-09T23:28:16.937Z,12.40
2024-05-09T23:30:44.284Z,12.40
2024-05-09T23:33:15.070Z,12.40
2024-05-09T23:35:43.993Z,12.40
2024-05-09T23:38:14.171Z,12.40
2024-05-09T23:40:42.418Z,12.30
2024-05-09T23:43:16.490Z,12.30
2024-05-09T23:45:43.884Z,12.30
2024-05-09T23:48:14.158Z,12.30
2024-05-09T23:50:41.863Z,12.30
2024-05-09T23:53:11.825Z,12.30
2024-05-09T23:55:39.353Z,12.30
2024-05-09T23:58:11.340Z,12.20
